sensor_id;sensor_type;location;lat;lon;timestamp;P1;durP1;ratioP1;P2;durP2;ratioP2
70924;SDS011;58577;52.410;13.242;2022-12-10T00:00:16;26.88;;;11.30;;
70924;SDS011;58577;52.410;13.242;2022-12-10T00:03:02;25.10;;;10.18;;
70924;SDS011;58577;52.410;13.242;2022-12-10T00:05:48;27.70;;;11.23;;
70924;SDS011;58577;52.410;13.242;2022-12-10T00:08:34;26.75;;;11.20;;
70924;SDS011;58577;52.410;13.242;2022-12-10T00:11:20;27.95;;;11.25;;
70924;SDS011;58577;52.410;13.242;2022-12-10T00:14:08;26.45;;;10.40;;
70924;SDS011;58577;52.410;13.242;2022-12-10T00:16:54;25.50;;;11.10;;
70924;SDS011;58577;52.410;13.242;2022-12-10T00:19:40;25.77;;;11.05;;
70924;SDS011;58577;52.410;13.242;2022-12-10T00:22:26;26.30;;;10.88;;
70924;SDS011;58577;52.410;13.242;2022-12-10T00:25:11;24.98;;;10.68;;
70924;SDS011;58577;52.410;13.242;2022-12-10T00:27:57;26.60;;;10.63;;
70924;SDS011;58577;52.410;13.242;2022-12-10T00:30:43;24.83;;;9.77;;
70924;SDS011;58577;52.410;13.242;2022-12-10T00:33:29;28.70;;;10.93;;
70924;SDS011;58577;52.410;13.242;2022-12-10T00:39:03;24.17;;;10.23;;
70924;SDS011;58577;52.410;13.242;2022-12-10T00:41:50;27.83;;;10.40;;
70924;SDS011;58577;52.410;13.242;2022-12-10T00:44:38;29.42;;;10.90;;
70924;SDS011;58577;52.410;13.242;2022-12-10T00:47:24;28.85;;;11.80;;
70924;SDS011;58577;52.410;13.242;2022-12-10T00:50:16;29.52;;;11.52;;
70924;SDS011;58577;52.410;13.242;2022-12-10T00:53:02;29.17;;;11.40;;
70924;SDS011;58577;52.410;13.242;2022-12-10T00:55:51;27.88;;;10.88;;
70924;SDS011;58577;52.410;13.242;2022-12-10T00:58:40;27.30;;;11.77;;
70924;SDS011;58577;52.410;13.242;2022-12-10T01:04:19;28.08;;;11.10;;
70924;SDS011;58577;52.410;13.242;2022-12-10T01:07:05;25.92;;;10.57;;
70924;SDS011;58577;52.410;13.242;2022-12-10T01:09:52;26.95;;;10.10;;
70924;SDS011;58577;52.410;13.242;2022-12-10T01:12:40;27.20;;;10.45;;
70924;SDS011;58577;52.410;13.242;2022-12-10T01:15:26;25.20;;;11.23;;
70924;SDS011;58577;52.410;13.242;2022-12-10T01:18:12;25.55;;;11.10;;
70924;SDS011;58577;52.410;13.242;2022-12-10T01:21:00;28.75;;;11.05;;
70924;SDS011;58577;52.410;13.242;2022-12-10T01:23:49;25.38;;;10.68;;
70924;SDS011;58577;52.410;13.242;2022-12-10T01:26:36;28.40;;;10.60;;
70924;SDS011;58577;52.410;13.242;2022-12-10T01:29:22;27.05;;;11.68;;
70924;SDS011;58577;52.410;13.242;2022-12-10T01:32:08;26.25;;;11.10;;
70924;SDS011;58577;52.410;13.242;2022-12-10T01:34:57;28.65;;;12.13;;
70924;SDS011;58577;52.410;13.242;2022-12-10T01:37:43;28.35;;;11.82;;
70924;SDS011;58577;52.410;13.242;2022-12-10T01:40:29;28.25;;;11.20;;
70924;SDS011;58577;52.410;13.242;2022-12-10T01:43:16;23.45;;;11.25;;
70924;SDS011;58577;52.410;13.242;2022-12-10T01:46:01;26.45;;;10.63;;
70924;SDS011;58577;52.410;13.242;2022-12-10T01:48:47;29.83;;;12.07;;
70924;SDS011;58577;52.410;13.242;2022-12-10T01:51:35;26.88;;;10.75;;
70924;SDS011;58577;52.410;13.242;2022-12-10T01:54:27;26.13;;;10.50;;
70924;SDS011;58577;52.410;13.242;2022-12-10T01:57:16;28.33;;;12.07;;
70924;SDS011;58577;52.410;13.242;2022-12-10T02:00:04;26.98;;;11.18;;
70924;SDS011;58577;52.410;13.242;2022-12-10T02:03:00;30.55;;;12.95;;
70924;SDS011;58577;52.410;13.242;2022-12-10T02:05:58;30.42;;;12.77;;
70924;SDS011;58577;52.410;13.242;2022-12-10T02:09:50;27.10;;;11.48;;
70924;SDS011;58577;52.410;13.242;2022-12-10T02:12:34;29.25;;;12.30;;
70924;SDS011;58577;52.410;13.242;2022-12-10T02:15:35;27.17;;;11.52;;
70924;SDS011;58577;52.410;13.242;2022-12-10T02:21:39;26.35;;;10.15;;
70924;SDS011;58577;52.410;13.242;2022-12-10T02:24:30;27.67;;;11.30;;
70924;SDS011;58577;52.410;13.242;2022-12-10T02:27:25;30.38;;;11.45;;
70924;SDS011;58577;52.410;13.242;2022-12-10T02:30:16;27.17;;;10.90;;
70924;SDS011;58577;52.410;13.242;2022-12-10T02:33:03;27.27;;;10.88;;
70924;SDS011;58577;52.410;13.242;2022-12-10T02:35:53;28.60;;;11.43;;
70924;SDS011;58577;52.410;13.242;2022-12-10T02:38:41;28.50;;;10.32;;
70924;SDS011;58577;52.410;13.242;2022-12-10T02:41:34;27.77;;;10.63;;
70924;SDS011;58577;52.410;13.242;2022-12-10T02:44:23;29.23;;;10.93;;
70924;SDS011;58577;52.410;13.242;2022-12-10T02:47:12;30.45;;;12.30;;
70924;SDS011;58577;52.410;13.242;2022-12-10T02:52:49;27.13;;;9.85;;
70924;SDS011;58577;52.410;13.242;2022-12-10T02:55:42;26.48;;;11.50;;
70924;SDS011;58577;52.410;13.242;2022-12-10T02:59:07;25.10;;;10.60;;
70924;SDS011;58577;52.410;13.242;2022-12-10T03:02:10;24.95;;;10.65;;
70924;SDS011;58577;52.410;13.242;2022-12-10T03:05:09;27.98;;;12.15;;
70924;SDS011;58577;52.410;13.242;2022-12-10T03:08:14;29.27;;;10.88;;
70924;SDS011;58577;52.410;13.242;2022-12-10T03:11:07;25.42;;;9.93;;
70924;SDS011;58577;52.410;13.242;2022-12-10T03:14:13;30.63;;;11.35;;
70924;SDS011;58577;52.410;13.242;2022-12-10T03:17:06;27.83;;;11.13;;
70924;SDS011;58577;52.410;13.242;2022-12-10T03:19:52;30.08;;;11.77;;
70924;SDS011;58577;52.410;13.242;2022-12-10T03:22:40;28.80;;;11.30;;
70924;SDS011;58577;52.410;13.242;2022-12-10T03:25:31;30.60;;;11.32;;
70924;SDS011;58577;52.410;13.242;2022-12-10T03:28:18;28.20;;;11.18;;
70924;SDS011;58577;52.410;13.242;2022-12-10T03:31:08;31.23;;;11.32;;
70924;SDS011;58577;52.410;13.242;2022-12-10T03:33:55;27.67;;;10.63;;
70924;SDS011;58577;52.410;13.242;2022-12-10T03:36:42;26.80;;;10.77;;
70924;SDS011;58577;52.410;13.242;2022-12-10T03:39:29;26.48;;;12.18;;
70924;SDS011;58577;52.410;13.242;2022-12-10T03:42:15;28.30;;;11.52;;
70924;SDS011;58577;52.410;13.242;2022-12-10T03:45:01;29.25;;;10.88;;
70924;SDS011;58577;52.410;13.242;2022-12-10T03:47:48;29.63;;;11.60;;
70924;SDS011;58577;52.410;13.242;2022-12-10T03:50:34;25.80;;;10.93;;
70924;SDS011;58577;52.410;13.242;2022-12-10T03:53:20;32.10;;;12.50;;
70924;SDS011;58577;52.410;13.242;2022-12-10T03:56:06;28.77;;;11.13;;
70924;SDS011;58577;52.410;13.242;2022-12-10T03:58:52;27.45;;;11.75;;
70924;SDS011;58577;52.410;13.242;2022-12-10T04:01:38;28.60;;;11.43;;
70924;SDS011;58577;52.410;13.242;2022-12-10T04:04:24;27.77;;;11.82;;
70924;SDS011;58577;52.410;13.242;2022-12-10T04:07:10;25.50;;;10.90;;
70924;SDS011;58577;52.410;13.242;2022-12-10T04:09:56;26.85;;;10.90;;
70924;SDS011;58577;52.410;13.242;2022-12-10T04:12:42;27.83;;;11.23;;
70924;SDS011;58577;52.410;13.242;2022-12-10T04:15:27;30.25;;;12.32;;
70924;SDS011;58577;52.410;13.242;2022-12-10T04:18:32;33.50;;;13.15;;
70924;SDS011;58577;52.410;13.242;2022-12-10T04:21:18;32.25;;;12.23;;
70924;SDS011;58577;52.410;13.242;2022-12-10T04:24:23;29.27;;;12.13;;
70924;SDS011;58577;52.410;13.242;2022-12-10T04:27:30;29.33;;;11.95;;
70924;SDS011;58577;52.410;13.242;2022-12-10T04:30:18;30.75;;;13.68;;
70924;SDS011;58577;52.410;13.242;2022-12-10T04:33:04;27.40;;;11.80;;
70924;SDS011;58577;52.410;13.242;2022-12-10T04:35:50;27.08;;;11.63;;
70924;SDS011;58577;52.410;13.242;2022-12-10T04:38:36;29.70;;;12.50;;
70924;SDS011;58577;52.410;13.242;2022-12-10T04:41:22;31.65;;;12.85;;
70924;SDS011;58577;52.410;13.242;2022-12-10T04:44:07;32.50;;;12.38;;
70924;SDS011;58577;52.410;13.242;2022-12-10T04:46:54;32.38;;;12.27;;
70924;SDS011;58577;52.410;13.242;2022-12-10T04:49:40;32.50;;;12.95;;
70924;SDS011;58577;52.410;13.242;2022-12-10T04:52:26;30.52;;;12.55;;
70924;SDS011;58577;52.410;13.242;2022-12-10T04:55:12;36.58;;;13.57;;
70924;SDS011;58577;52.410;13.242;2022-12-10T04:57:58;31.95;;;12.43;;
70924;SDS011;58577;52.410;13.242;2022-12-10T05:00:43;32.95;;;13.35;;
70924;SDS011;58577;52.410;13.242;2022-12-10T05:03:29;35.17;;;13.70;;
70924;SDS011;58577;52.410;13.242;2022-12-10T05:06:16;31.83;;;12.27;;
70924;SDS011;58577;52.410;13.242;2022-12-10T05:09:03;36.40;;;13.90;;
70924;SDS011;58577;52.410;13.242;2022-12-10T05:11:50;32.38;;;13.73;;
70924;SDS011;58577;52.410;13.242;2022-12-10T05:14:35;36.38;;;14.80;;
70924;SDS011;58577;52.410;13.242;2022-12-10T05:17:21;32.30;;;13.07;;
70924;SDS011;58577;52.410;13.242;2022-12-10T05:20:07;37.88;;;14.48;;
70924;SDS011;58577;52.410;13.242;2022-12-10T05:22:56;33.08;;;14.75;;
70924;SDS011;58577;52.410;13.242;2022-12-10T05:26:02;33.15;;;13.32;;
70924;SDS011;58577;52.410;13.242;2022-12-10T05:28:54;34.88;;;13.50;;
70924;SDS011;58577;52.410;13.242;2022-12-10T05:31:41;31.67;;;12.00;;
70924;SDS011;58577;52.410;13.242;2022-12-10T05:34:27;28.80;;;12.10;;
70924;SDS011;58577;52.410;13.242;2022-12-10T05:37:13;31.95;;;13.82;;
70924;SDS011;58577;52.410;13.242;2022-12-10T05:39:59;31.92;;;13.38;;
70924;SDS011;58577;52.410;13.242;2022-12-10T05:42:44;31.88;;;13.30;;
70924;SDS011;58577;52.410;13.242;2022-12-10T05:45:33;36.38;;;14.20;;
70924;SDS011;58577;52.410;13.242;2022-12-10T05:48:19;34.30;;;14.43;;
70924;SDS011;58577;52.410;13.242;2022-12-10T05:51:05;33.35;;;13.15;;
70924;SDS011;58577;52.410;13.242;2022-12-10T05:53:53;37.28;;;14.35;;
70924;SDS011;58577;52.410;13.242;2022-12-10T05:56:39;34.45;;;13.35;;
70924;SDS011;58577;52.410;13.242;2022-12-10T05:59:25;29.55;;;12.88;;
70924;SDS011;58577;52.410;13.242;2022-12-10T06:02:11;32.08;;;12.98;;
70924;SDS011;58577;52.410;13.242;2022-12-10T06:04:57;29.48;;;12.48;;
70924;SDS011;58577;52.410;13.242;2022-12-10T06:07:44;30.92;;;13.07;;
70924;SDS011;58577;52.410;13.242;2022-12-10T06:10:30;35.90;;;13.07;;
70924;SDS011;58577;52.410;13.242;2022-12-10T06:13:16;30.27;;;11.95;;
70924;SDS011;58577;52.410;13.242;2022-12-10T06:16:05;33.33;;;13.90;;
70924;SDS011;58577;52.410;13.242;2022-12-10T06:18:52;34.50;;;13.20;;
70924;SDS011;58577;52.410;13.242;2022-12-10T06:21:38;31.40;;;12.45;;
70924;SDS011;58577;52.410;13.242;2022-12-10T06:24:24;36.92;;;14.43;;
70924;SDS011;58577;52.410;13.242;2022-12-10T06:27:10;30.48;;;12.73;;
70924;SDS011;58577;52.410;13.242;2022-12-10T06:29:56;34.35;;;12.65;;
70924;SDS011;58577;52.410;13.242;2022-12-10T06:32:42;30.45;;;12.63;;
70924;SDS011;58577;52.410;13.242;2022-12-10T06:35:28;28.67;;;11.98;;
70924;SDS011;58577;52.410;13.242;2022-12-10T06:38:14;30.45;;;12.32;;
70924;SDS011;58577;52.410;13.242;2022-12-10T06:41:00;29.52;;;12.05;;
70924;SDS011;58577;52.410;13.242;2022-12-10T06:43:50;31.83;;;12.95;;
70924;SDS011;58577;52.410;13.242;2022-12-10T06:46:35;29.60;;;12.18;;
70924;SDS011;58577;52.410;13.242;2022-12-10T06:49:22;29.17;;;12.15;;
70924;SDS011;58577;52.410;13.242;2022-12-10T06:52:07;30.33;;;12.30;;
70924;SDS011;58577;52.410;13.242;2022-12-10T06:54:53;28.08;;;12.07;;
70924;SDS011;58577;52.410;13.242;2022-12-10T06:57:40;27.77;;;11.68;;
70924;SDS011;58577;52.410;13.242;2022-12-10T07:00:26;28.35;;;12.02;;
70924;SDS011;58577;52.410;13.242;2022-12-10T07:03:12;30.67;;;13.07;;
70924;SDS011;58577;52.410;13.242;2022-12-10T07:05:58;29.70;;;13.55;;
70924;SDS011;58577;52.410;13.242;2022-12-10T07:08:45;30.42;;;12.63;;
70924;SDS011;58577;52.410;13.242;2022-12-10T07:11:31;28.88;;;13.20;;
70924;SDS011;58577;52.410;13.242;2022-12-10T07:14:18;29.65;;;12.05;;
70924;SDS011;58577;52.410;13.242;2022-12-10T07:17:04;30.17;;;12.75;;
70924;SDS011;58577;52.410;13.242;2022-12-10T07:19:50;34.78;;;13.48;;
70924;SDS011;58577;52.410;13.242;2022-12-10T07:22:36;31.75;;;13.00;;
70924;SDS011;58577;52.410;13.242;2022-12-10T07:25:22;30.45;;;12.95;;
70924;SDS011;58577;52.410;13.242;2022-12-10T07:28:08;33.05;;;13.10;;
70924;SDS011;58577;52.410;13.242;2022-12-10T07:30:59;33.45;;;13.32;;
70924;SDS011;58577;52.410;13.242;2022-12-10T07:33:50;32.58;;;13.45;;
70924;SDS011;58577;52.410;13.242;2022-12-10T07:36:38;28.75;;;12.35;;
70924;SDS011;58577;52.410;13.242;2022-12-10T07:39:23;30.42;;;12.85;;
70924;SDS011;58577;52.410;13.242;2022-12-10T07:42:09;27.83;;;11.85;;
70924;SDS011;58577;52.410;13.242;2022-12-10T07:44:57;27.77;;;12.48;;
70924;SDS011;58577;52.410;13.242;2022-12-10T07:47:43;28.65;;;12.60;;
70924;SDS011;58577;52.410;13.242;2022-12-10T07:50:29;30.58;;;12.70;;
70924;SDS011;58577;52.410;13.242;2022-12-10T07:53:15;29.33;;;13.50;;
70924;SDS011;58577;52.410;13.242;2022-12-10T07:56:00;28.17;;;12.60;;
70924;SDS011;58577;52.410;13.242;2022-12-10T07:58:47;22.92;;;10.88;;
70924;SDS011;58577;52.410;13.242;2022-12-10T08:01:33;25.38;;;11.95;;
70924;SDS011;58577;52.410;13.242;2022-12-10T08:04:19;25.70;;;11.95;;
70924;SDS011;58577;52.410;13.242;2022-12-10T08:07:05;25.17;;;11.55;;
70924;SDS011;58577;52.410;13.242;2022-12-10T08:09:51;27.17;;;11.40;;
70924;SDS011;58577;52.410;13.242;2022-12-10T08:12:36;26.92;;;11.40;;
70924;SDS011;58577;52.410;13.242;2022-12-10T08:15:22;28.73;;;12.13;;
70924;SDS011;58577;52.410;13.242;2022-12-10T08:18:08;26.60;;;12.15;;
70924;SDS011;58577;52.410;13.242;2022-12-10T08:20:54;28.10;;;11.70;;
70924;SDS011;58577;52.410;13.242;2022-12-10T08:23:40;23.73;;;10.75;;
70924;SDS011;58577;52.410;13.242;2022-12-10T08:26:29;27.75;;;11.30;;
70924;SDS011;58577;52.410;13.242;2022-12-10T08:29:16;24.42;;;11.35;;
70924;SDS011;58577;52.410;13.242;2022-12-10T08:32:02;24.30;;;11.13;;
70924;SDS011;58577;52.410;13.242;2022-12-10T08:34:48;22.88;;;10.90;;
70924;SDS011;58577;52.410;13.242;2022-12-10T08:37:34;24.40;;;11.38;;
70924;SDS011;58577;52.410;13.242;2022-12-10T08:40:20;24.08;;;11.23;;
70924;SDS011;58577;52.410;13.242;2022-12-10T08:43:06;24.98;;;11.98;;
70924;SDS011;58577;52.410;13.242;2022-12-10T08:45:51;23.30;;;10.55;;
70924;SDS011;58577;52.410;13.242;2022-12-10T08:48:37;28.45;;;12.82;;
70924;SDS011;58577;52.410;13.242;2022-12-10T08:51:24;25.35;;;12.25;;
70924;SDS011;58577;52.410;13.242;2022-12-10T08:54:10;24.95;;;12.20;;
70924;SDS011;58577;52.410;13.242;2022-12-10T08:56:56;23.20;;;10.95;;
70924;SDS011;58577;52.410;13.242;2022-12-10T08:59:42;26.42;;;12.25;;
70924;SDS011;58577;52.410;13.242;2022-12-10T09:02:28;25.13;;;11.60;;
70924;SDS011;58577;52.410;13.242;2022-12-10T09:05:14;25.40;;;11.48;;
70924;SDS011;58577;52.410;13.242;2022-12-10T09:08:00;24.95;;;11.95;;
70924;SDS011;58577;52.410;13.242;2022-12-10T09:10:46;23.50;;;10.43;;
70924;SDS011;58577;52.410;13.242;2022-12-10T09:13:32;24.30;;;11.90;;
70924;SDS011;58577;52.410;13.242;2022-12-10T09:16:18;24.73;;;12.07;;
70924;SDS011;58577;52.410;13.242;2022-12-10T09:19:04;23.98;;;11.02;;
70924;SDS011;58577;52.410;13.242;2022-12-10T09:21:50;26.38;;;12.40;;
70924;SDS011;58577;52.410;13.242;2022-12-10T09:24:36;26.27;;;11.82;;
70924;SDS011;58577;52.410;13.242;2022-12-10T09:27:22;25.95;;;12.48;;
70924;SDS011;58577;52.410;13.242;2022-12-10T09:30:08;27.83;;;12.52;;
70924;SDS011;58577;52.410;13.242;2022-12-10T09:32:56;24.65;;;12.43;;
70924;SDS011;58577;52.410;13.242;2022-12-10T09:35:42;24.33;;;12.35;;
70924;SDS011;58577;52.410;13.242;2022-12-10T09:38:30;24.10;;;11.45;;
70924;SDS011;58577;52.410;13.242;2022-12-10T09:41:35;24.50;;;12.18;;
70924;SDS011;58577;52.410;13.242;2022-12-10T09:48:05;23.17;;;10.80;;
70924;SDS011;58577;52.410;13.242;2022-12-10T09:51:21;23.45;;;12.15;;
70924;SDS011;58577;52.410;13.242;2022-12-10T09:54:19;25.75;;;11.52;;
70924;SDS011;58577;52.410;13.242;2022-12-10T09:57:18;25.00;;;12.13;;
70924;SDS011;58577;52.410;13.242;2022-12-10T10:00:19;25.92;;;12.13;;
70924;SDS011;58577;52.410;13.242;2022-12-10T10:03:05;26.00;;;13.00;;
70924;SDS011;58577;52.410;13.242;2022-12-10T10:05:55;26.70;;;12.73;;
70924;SDS011;58577;52.410;13.242;2022-12-10T10:08:45;25.23;;;12.23;;
70924;SDS011;58577;52.410;13.242;2022-12-10T10:11:34;26.10;;;12.45;;
70924;SDS011;58577;52.410;13.242;2022-12-10T10:14:27;27.55;;;13.32;;
70924;SDS011;58577;52.410;13.242;2022-12-10T10:17:16;23.33;;;12.40;;
70924;SDS011;58577;52.410;13.242;2022-12-10T10:20:06;23.95;;;11.85;;
70924;SDS011;58577;52.410;13.242;2022-12-10T10:22:52;24.60;;;12.80;;
70924;SDS011;58577;52.410;13.242;2022-12-10T10:25:41;23.98;;;12.63;;
70924;SDS011;58577;52.410;13.242;2022-12-10T10:28:29;27.02;;;13.35;;
70924;SDS011;58577;52.410;13.242;2022-12-10T10:31:22;25.88;;;12.25;;
70924;SDS011;58577;52.410;13.242;2022-12-10T10:37:04;25.58;;;12.90;;
70924;SDS011;58577;52.410;13.242;2022-12-10T10:39:50;24.92;;;11.70;;
70924;SDS011;58577;52.410;13.242;2022-12-10T10:42:40;28.55;;;12.00;;
70924;SDS011;58577;52.410;13.242;2022-12-10T10:48:39;24.52;;;11.38;;
70924;SDS011;58577;52.410;13.242;2022-12-10T10:51:25;26.00;;;12.50;;
70924;SDS011;58577;52.410;13.242;2022-12-10T10:54:11;23.98;;;11.85;;
70924;SDS011;58577;52.410;13.242;2022-12-10T10:56:57;22.63;;;10.95;;
70924;SDS011;58577;52.410;13.242;2022-12-10T10:59:43;22.60;;;11.35;;
70924;SDS011;58577;52.410;13.242;2022-12-10T11:02:37;23.05;;;12.30;;
70924;SDS011;58577;52.410;13.242;2022-12-10T11:05:29;21.20;;;11.18;;
70924;SDS011;58577;52.410;13.242;2022-12-10T11:08:16;22.02;;;11.30;;
70924;SDS011;58577;52.410;13.242;2022-12-10T11:11:04;22.85;;;11.07;;
70924;SDS011;58577;52.410;13.242;2022-12-10T11:14:12;24.77;;;11.77;;
70924;SDS011;58577;52.410;13.242;2022-12-10T11:17:12;23.13;;;11.27;;
70924;SDS011;58577;52.410;13.242;2022-12-10T11:20:14;23.08;;;12.27;;
70924;SDS011;58577;52.410;13.242;2022-12-10T11:23:12;24.23;;;11.50;;
70924;SDS011;58577;52.410;13.242;2022-12-10T11:38:03;27.60;;;11.57;;
70924;SDS011;58577;52.410;13.242;2022-12-10T11:41:03;24.13;;;12.40;;
70924;SDS011;58577;52.410;13.242;2022-12-10T11:53:13;23.50;;;11.65;;
70924;SDS011;58577;52.410;13.242;2022-12-10T11:56:31;22.63;;;11.48;;
70924;SDS011;58577;52.410;13.242;2022-12-10T11:59:28;22.65;;;10.48;;
70924;SDS011;58577;52.410;13.242;2022-12-10T12:09:02;21.17;;;11.68;;
70924;SDS011;58577;52.410;13.242;2022-12-10T12:12:00;23.30;;;11.55;;
70924;SDS011;58577;52.410;13.242;2022-12-10T12:14:54;24.15;;;11.57;;
70924;SDS011;58577;52.410;13.242;2022-12-10T12:17:49;22.40;;;10.80;;
70924;SDS011;58577;52.410;13.242;2022-12-10T12:20:41;21.48;;;10.80;;
70924;SDS011;58577;52.410;13.242;2022-12-10T12:27:00;22.90;;;12.05;;
70924;SDS011;58577;52.410;13.242;2022-12-10T12:30:13;25.95;;;12.55;;
70924;SDS011;58577;52.410;13.242;2022-12-10T12:33:08;21.17;;;11.02;;
70924;SDS011;58577;52.410;13.242;2022-12-10T12:36:06;25.92;;;12.45;;
70924;SDS011;58577;52.410;13.242;2022-12-10T12:39:50;24.73;;;12.15;;
70924;SDS011;58577;52.410;13.242;2022-12-10T12:42:54;23.42;;;11.65;;
70924;SDS011;58577;52.410;13.242;2022-12-10T12:45:47;24.90;;;11.88;;
70924;SDS011;58577;52.410;13.242;2022-12-10T12:52:02;23.52;;;11.45;;
70924;SDS011;58577;52.410;13.242;2022-12-10T12:54:46;24.90;;;11.30;;
70924;SDS011;58577;52.410;13.242;2022-12-10T13:00:55;26.38;;;11.90;;
70924;SDS011;58577;52.410;13.242;2022-12-10T13:03:47;26.63;;;13.32;;
70924;SDS011;58577;52.410;13.242;2022-12-10T13:06:39;30.55;;;14.07;;
70924;SDS011;58577;52.410;13.242;2022-12-10T13:09:49;26.33;;;13.37;;
70924;SDS011;58577;52.410;13.242;2022-12-10T13:13:40;28.48;;;13.35;;
70924;SDS011;58577;52.410;13.242;2022-12-10T13:19:27;26.27;;;12.05;;
70924;SDS011;58577;52.410;13.242;2022-12-10T13:25:39;25.30;;;12.50;;
70924;SDS011;58577;52.410;13.242;2022-12-10T13:28:48;27.23;;;13.00;;
70924;SDS011;58577;52.410;13.242;2022-12-10T13:31:37;25.92;;;12.93;;
70924;SDS011;58577;52.410;13.242;2022-12-10T13:34:31;25.83;;;12.88;;
70924;SDS011;58577;52.410;13.242;2022-12-10T13:37:29;28.05;;;13.98;;
70924;SDS011;58577;52.410;13.242;2022-12-10T13:43:37;26.17;;;12.77;;
70924;SDS011;58577;52.410;13.242;2022-12-10T13:49:58;30.38;;;13.48;;
70924;SDS011;58577;52.410;13.242;2022-12-10T13:52:56;25.33;;;11.27;;
70924;SDS011;58577;52.410;13.242;2022-12-10T14:08:38;26.05;;;12.18;;
70924;SDS011;58577;52.410;13.242;2022-12-10T14:11:32;24.95;;;12.35;;
70924;SDS011;58577;52.410;13.242;2022-12-10T14:14:39;28.23;;;13.15;;
70924;SDS011;58577;52.410;13.242;2022-12-10T14:17:38;30.65;;;13.00;;
70924;SDS011;58577;52.410;13.242;2022-12-10T14:20:28;28.58;;;13.13;;
70924;SDS011;58577;52.410;13.242;2022-12-10T14:23:22;27.50;;;13.63;;
70924;SDS011;58577;52.410;13.242;2022-12-10T14:26:20;26.83;;;12.43;;
70924;SDS011;58577;52.410;13.242;2022-12-10T14:29:19;25.50;;;12.18;;
70924;SDS011;58577;52.410;13.242;2022-12-10T14:32:10;29.38;;;14.23;;
70924;SDS011;58577;52.410;13.242;2022-12-10T14:35:00;26.60;;;13.15;;
70924;SDS011;58577;52.410;13.242;2022-12-10T14:37:51;28.02;;;13.95;;
70924;SDS011;58577;52.410;13.242;2022-12-10T14:40:42;28.48;;;13.55;;
70924;SDS011;58577;52.410;13.242;2022-12-10T14:43:38;25.45;;;12.05;;
70924;SDS011;58577;52.410;13.242;2022-12-10T14:46:27;26.45;;;12.52;;
70924;SDS011;58577;52.410;13.242;2022-12-10T14:49:16;29.10;;;12.88;;
70924;SDS011;58577;52.410;13.242;2022-12-10T14:52:22;30.23;;;14.13;;
70924;SDS011;58577;52.410;13.242;2022-12-10T14:55:17;28.33;;;13.88;;
70924;SDS011;58577;52.410;13.242;2022-12-10T14:58:06;29.00;;;13.23;;
70924;SDS011;58577;52.410;13.242;2022-12-10T15:00:59;30.02;;;13.50;;
70924;SDS011;58577;52.410;13.242;2022-12-10T15:03:46;28.92;;;13.23;;
70924;SDS011;58577;52.410;13.242;2022-12-10T15:06:34;28.67;;;13.65;;
70924;SDS011;58577;52.410;13.242;2022-12-10T15:09:23;27.70;;;12.57;;
70924;SDS011;58577;52.410;13.242;2022-12-10T15:12:28;29.60;;;13.13;;
70924;SDS011;58577;52.410;13.242;2022-12-10T15:15:29;29.63;;;13.57;;
70924;SDS011;58577;52.410;13.242;2022-12-10T15:18:16;31.13;;;14.57;;
70924;SDS011;58577;52.410;13.242;2022-12-10T15:21:13;31.30;;;14.00;;
70924;SDS011;58577;52.410;13.242;2022-12-10T15:24:09;30.45;;;13.98;;
70924;SDS011;58577;52.410;13.242;2022-12-10T15:27:01;33.17;;;13.85;;
70924;SDS011;58577;52.410;13.242;2022-12-10T15:29:47;35.20;;;14.93;;
70924;SDS011;58577;52.410;13.242;2022-12-10T15:32:34;31.42;;;13.57;;
70924;SDS011;58577;52.410;13.242;2022-12-10T15:35:19;33.08;;;14.57;;
70924;SDS011;58577;52.410;13.242;2022-12-10T15:38:09;28.30;;;13.52;;
70924;SDS011;58577;52.410;13.242;2022-12-10T15:40:59;30.25;;;13.05;;
70924;SDS011;58577;52.410;13.242;2022-12-10T15:44:06;29.33;;;12.55;;
70924;SDS011;58577;52.410;13.242;2022-12-10T15:49:55;31.98;;;13.45;;
70924;SDS011;58577;52.410;13.242;2022-12-10T15:52:41;29.02;;;12.07;;
70924;SDS011;58577;52.410;13.242;2022-12-10T15:55:27;31.30;;;13.23;;
70924;SDS011;58577;52.410;13.242;2022-12-10T15:58:13;27.70;;;12.20;;
70924;SDS011;58577;52.410;13.242;2022-12-10T16:00:59;30.30;;;13.68;;
70924;SDS011;58577;52.410;13.242;2022-12-10T16:03:46;29.20;;;13.15;;
70924;SDS011;58577;52.410;13.242;2022-12-10T16:06:32;29.95;;;12.88;;
70924;SDS011;58577;52.410;13.242;2022-12-10T16:09:17;29.90;;;13.50;;
70924;SDS011;58577;52.410;13.242;2022-12-10T16:12:03;27.80;;;12.98;;
70924;SDS011;58577;52.410;13.242;2022-12-10T16:14:50;27.98;;;13.18;;
70924;SDS011;58577;52.410;13.242;2022-12-10T16:17:38;31.30;;;12.52;;
70924;SDS011;58577;52.410;13.242;2022-12-10T16:20:27;30.73;;;12.70;;
70924;SDS011;58577;52.410;13.242;2022-12-10T16:23:15;27.38;;;12.02;;
70924;SDS011;58577;52.410;13.242;2022-12-10T16:26:01;31.27;;;13.48;;
70924;SDS011;58577;52.410;13.242;2022-12-10T16:28:49;30.35;;;12.32;;
70924;SDS011;58577;52.410;13.242;2022-12-10T16:31:36;30.08;;;12.65;;
70924;SDS011;58577;52.410;13.242;2022-12-10T16:34:22;28.83;;;11.38;;
70924;SDS011;58577;52.410;13.242;2022-12-10T16:37:08;30.90;;;13.30;;
70924;SDS011;58577;52.410;13.242;2022-12-10T16:39:55;30.63;;;12.80;;
70924;SDS011;58577;52.410;13.242;2022-12-10T16:42:41;31.50;;;13.60;;
70924;SDS011;58577;52.410;13.242;2022-12-10T16:45:31;31.33;;;15.32;;
70924;SDS011;58577;52.410;13.242;2022-12-10T16:48:27;31.50;;;13.55;;
70924;SDS011;58577;52.410;13.242;2022-12-10T16:51:26;36.70;;;14.43;;
70924;SDS011;58577;52.410;13.242;2022-12-10T16:54:14;33.38;;;14.48;;
70924;SDS011;58577;52.410;13.242;2022-12-10T16:57:00;33.63;;;15.18;;
70924;SDS011;58577;52.410;13.242;2022-12-10T16:59:46;34.08;;;15.00;;
70924;SDS011;58577;52.410;13.242;2022-12-10T17:02:32;32.90;;;13.80;;
70924;SDS011;58577;52.410;13.242;2022-12-10T17:05:28;32.88;;;13.57;;
70924;SDS011;58577;52.410;13.242;2022-12-10T17:08:17;33.88;;;14.13;;
70924;SDS011;58577;52.410;13.242;2022-12-10T17:11:09;31.27;;;12.93;;
70924;SDS011;58577;52.410;13.242;2022-12-10T17:14:28;36.60;;;13.65;;
70924;SDS011;58577;52.410;13.242;2022-12-10T17:17:17;30.08;;;12.90;;
70924;SDS011;58577;52.410;13.242;2022-12-10T17:20:09;36.75;;;15.23;;
70924;SDS011;58577;52.410;13.242;2022-12-10T17:23:00;33.50;;;15.07;;
70924;SDS011;58577;52.410;13.242;2022-12-10T17:25:46;33.38;;;12.32;;
70924;SDS011;58577;52.410;13.242;2022-12-10T17:28:34;31.30;;;14.43;;
70924;SDS011;58577;52.410;13.242;2022-12-10T17:31:20;33.00;;;14.15;;
70924;SDS011;58577;52.410;13.242;2022-12-10T17:34:06;34.92;;;14.95;;
70924;SDS011;58577;52.410;13.242;2022-12-10T17:36:52;33.20;;;14.02;;
70924;SDS011;58577;52.410;13.242;2022-12-10T17:39:38;36.75;;;14.77;;
70924;SDS011;58577;52.410;13.242;2022-12-10T17:42:24;30.80;;;13.27;;
70924;SDS011;58577;52.410;13.242;2022-12-10T17:45:13;31.17;;;14.75;;
70924;SDS011;58577;52.410;13.242;2022-12-10T17:48:01;27.63;;;13.55;;